Terminal Aerodrome Forecast
Issued by NWS

Home | Current Version | Previous Version | Text Only | Print | Product List | Glossary On
Versions: 1 2 3 4 5 6 7 8 9 10 11 12 13 14 15 16
000
FTUS43 KDDC 271129
TAFGCK
TAF
KGCK 271129Z 2712/2812 VRB06KT P6SM FEW060
     FM272100 17014KT P6SM SCT120
     FM272300 16013KT P6SM BKN140 PROB30 2803/2805 4SM -TSRA
      OVC040CB=

USA.gov is the U.S. government's official web portal to all federal, state and local government web resources and services.